SBSM/RIA METAR and TAF weather

Enter ICAO airport designator
Station Type Date Time Source
SBSM METAR 2019/06/18 13:00 UTC NOAA

SBSM 181300Z 02004KT 330V080 CAVOK 24/17 Q1016


Station Type Date Time Source
SBSM Decoded METAR 2019/06/18 13:00 UTC NOAA

Santa Maria Aero-Porto , Brazil (SBSM) 29-43S 053-42W
Jun 18, 2019 - 09:00 AM EDT / 2019.06.18 1300 UTC
Wind: from the NNE (020 degrees) at 5 MPH (4 KT) (direction variable):0
Visibility: greater than 7 mile(s):0
Temperature: 75 F (24 C)
Dew Point: 62 F (17 C)
Relative Humidity: 64%
Pressure (altimeter): 30.00 in. Hg (1016 hPa)
ob: SBSM 181300Z 02004KT 330V080 CAVOK 24/17 Q1016
cycle: 13

Station Type Date Time Source
SBSM TAF 2019/06/18 12:33 UTC NOAA

TAF SBSM 180945Z 1812/1824 12005KT 2000 BR BKN002 TN21/1812Z TX26/1817Z
BECMG 1812/1814 9999 NSW SCT035
RMK PEB

Example: see airport list